sensor_id;sensor_type;location;lat;lon;timestamp;pressure;altitude;pressure_sealevel;temperature;humidity
55347;BME280;41218;55.700;38.270;2023-07-20T00:00:31;98400.88;;;13.59;67.26
55347;BME280;41218;55.700;38.270;2023-07-20T00:05:31;98412.72;;;13.63;67.46
55347;BME280;41218;55.700;38.270;2023-07-20T00:10:32;98410.41;;;13.58;67.41
55347;BME280;41218;55.700;38.270;2023-07-20T00:15:32;98420.66;;;13.61;67.26
55347;BME280;41218;55.700;38.270;2023-07-20T00:20:33;98426.63;;;13.59;67.47
55347;BME280;41218;55.700;38.270;2023-07-20T00:25:34;98424.41;;;13.51;67.47
55347;BME280;41218;55.700;38.270;2023-07-20T00:30:37;98428.38;;;13.50;67.55
55347;BME280;41218;55.700;38.270;2023-07-20T00:35:39;98437.44;;;13.54;67.56
55347;BME280;41218;55.700;38.270;2023-07-20T00:40:39;98438.53;;;13.60;67.52
55347;BME280;41218;55.700;38.270;2023-07-20T00:45:40;98440.75;;;13.45;67.16
55347;BME280;41218;55.700;38.270;2023-07-20T00:50:42;98436.94;;;13.35;67.42
55347;BME280;41218;55.700;38.270;2023-07-20T00:55:42;98444.69;;;13.48;67.62
55347;BME280;41218;55.700;38.270;2023-07-20T01:00:44;98443.72;;;13.34;67.46
55347;BME280;41218;55.700;38.270;2023-07-20T01:05:54;98452.03;;;13.34;67.73
55347;BME280;41218;55.700;38.270;2023-07-20T01:11:06;98433.22;;;13.18;68.21
55347;BME280;41218;55.700;38.270;2023-07-20T01:16:10;98447.34;;;13.28;67.70
55347;BME280;41218;55.700;38.270;2023-07-20T01:21:18;98461.22;;;13.28;68.00
55347;BME280;41218;55.700;38.270;2023-07-20T01:26:31;98458.44;;;13.28;67.88
55347;BME280;41218;55.700;38.270;2023-07-20T01:31:41;98452.63;;;13.18;67.66
55347;BME280;41218;55.700;38.270;2023-07-20T01:36:43;98454.28;;;13.16;67.90
55347;BME280;41218;55.700;38.270;2023-07-20T01:41:44;98452.28;;;13.16;68.00
55347;BME280;41218;55.700;38.270;2023-07-20T01:46:45;98450.28;;;13.17;67.93
55347;BME280;41218;55.700;38.270;2023-07-20T01:51:46;98453.16;;;13.10;67.96
55347;BME280;41218;55.700;38.270;2023-07-20T01:56:46;98461.78;;;13.15;67.84
55347;BME280;41218;55.700;38.270;2023-07-20T02:01:47;98433.81;;;13.06;67.99
55347;BME280;41218;55.700;38.270;2023-07-20T02:06:48;98441.69;;;13.08;67.96
55347;BME280;41218;55.700;38.270;2023-07-20T02:11:48;98454.41;;;13.05;68.04
55347;BME280;41218;55.700;38.270;2023-07-20T02:16:49;98454.38;;;13.09;68.06
55347;BME280;41218;55.700;38.270;2023-07-20T02:21:54;98444.16;;;13.02;68.11
55347;BME280;41218;55.700;38.270;2023-07-20T02:26:54;98444.94;;;13.02;68.21
55347;BME280;41218;55.700;38.270;2023-07-20T02:31:55;98447.66;;;13.06;68.12
55347;BME280;41218;55.700;38.270;2023-07-20T02:36:55;98456.25;;;13.15;68.28
55347;BME280;41218;55.700;38.270;2023-07-20T02:41:58;98440.13;;;13.07;68.23
55347;BME280;41218;55.700;38.270;2023-07-20T02:46:58;98449.53;;;13.13;68.25
55347;BME280;41218;55.700;38.270;2023-07-20T02:51:59;98454.72;;;13.11;68.59
55347;BME280;41218;55.700;38.270;2023-07-20T02:56:59;98471.22;;;13.21;68.61
55347;BME280;41218;55.700;38.270;2023-07-20T03:02:01;98470.44;;;13.21;68.90
55347;BME280;41218;55.700;38.270;2023-07-20T03:07:02;98464.84;;;13.25;69.29
55347;BME280;41218;55.700;38.270;2023-07-20T03:12:03;98470.25;;;13.35;69.31
55347;BME280;41218;55.700;38.270;2023-07-20T03:17:05;98467.09;;;13.33;69.61
55347;BME280;41218;55.700;38.270;2023-07-20T03:22:06;98480.34;;;13.49;69.91
55347;BME280;41218;55.700;38.270;2023-07-20T03:27:06;98484.47;;;13.65;70.01
55347;BME280;41218;55.700;38.270;2023-07-20T03:32:07;98484.34;;;13.72;70.02
55347;BME280;41218;55.700;38.270;2023-07-20T03:37:08;98486.94;;;13.82;70.02
55347;BME280;41218;55.700;38.270;2023-07-20T03:42:08;98482.00;;;13.94;69.82
55347;BME280;41218;55.700;38.270;2023-07-20T03:47:09;98498.66;;;14.17;70.06
55347;BME280;41218;55.700;38.270;2023-07-20T03:52:10;98492.66;;;14.19;69.79
55347;BME280;41218;55.700;38.270;2023-07-20T03:57:11;98496.50;;;14.25;69.63
55347;BME280;41218;55.700;38.270;2023-07-20T04:02:11;98499.00;;;14.39;69.44
55347;BME280;41218;55.700;38.270;2023-07-20T04:07:12;98503.25;;;14.48;69.43
55347;BME280;41218;55.700;38.270;2023-07-20T04:12:12;98503.88;;;14.55;69.24
55347;BME280;41218;55.700;38.270;2023-07-20T04:17:13;98501.34;;;14.65;69.47
55347;BME280;41218;55.700;38.270;2023-07-20T04:22:13;98501.84;;;14.79;69.46
55347;BME280;41218;55.700;38.270;2023-07-20T04:27:15;98494.13;;;14.87;68.97
55347;BME280;41218;55.700;38.270;2023-07-20T04:32:16;98496.34;;;14.96;68.95
55347;BME280;41218;55.700;38.270;2023-07-20T04:37:17;98513.88;;;15.13;68.93
55347;BME280;41218;55.700;38.270;2023-07-20T04:42:18;98508.56;;;15.18;68.61
55347;BME280;41218;55.700;38.270;2023-07-20T04:47:18;98509.97;;;15.27;68.75
55347;BME280;41218;55.700;38.270;2023-07-20T04:52:19;98512.81;;;15.43;68.52
55347;BME280;41218;55.700;38.270;2023-07-20T04:57:19;98518.41;;;15.59;68.28
55347;BME280;41218;55.700;38.270;2023-07-20T05:02:23;98524.44;;;15.74;67.95
55347;BME280;41218;55.700;38.270;2023-07-20T05:07:24;98519.41;;;15.86;67.77
55347;BME280;41218;55.700;38.270;2023-07-20T05:12:24;98518.84;;;15.91;67.60
55347;BME280;41218;55.700;38.270;2023-07-20T05:17:25;98518.56;;;16.01;67.42
55347;BME280;41218;55.700;38.270;2023-07-20T05:22:26;98521.97;;;16.09;67.35
55347;BME280;41218;55.700;38.270;2023-07-20T05:27:26;98527.53;;;16.26;66.68
55347;BME280;41218;55.700;38.270;2023-07-20T05:32:27;98518.63;;;16.31;66.42
55347;BME280;41218;55.700;38.270;2023-07-20T05:37:28;98519.66;;;16.37;66.17
55347;BME280;41218;55.700;38.270;2023-07-20T05:42:28;98526.88;;;16.51;66.36
55347;BME280;41218;55.700;38.270;2023-07-20T05:47:29;98521.97;;;16.55;65.83
55347;BME280;41218;55.700;38.270;2023-07-20T05:52:29;98531.25;;;16.81;65.88
55347;BME280;41218;55.700;38.270;2023-07-20T05:57:30;98514.84;;;16.83;65.36
55347;BME280;41218;55.700;38.270;2023-07-20T06:02:30;98517.41;;;16.90;65.29
55347;BME280;41218;55.700;38.270;2023-07-20T06:07:33;98523.03;;;17.03;64.77
55347;BME280;41218;55.700;38.270;2023-07-20T06:12:33;98524.41;;;17.24;64.72
55347;BME280;41218;55.700;38.270;2023-07-20T06:17:34;98523.97;;;17.26;64.24
55347;BME280;41218;55.700;38.270;2023-07-20T06:22:34;98527.53;;;17.39;64.02
55347;BME280;41218;55.700;38.270;2023-07-20T06:27:35;98512.22;;;17.43;63.61
55347;BME280;41218;55.700;38.270;2023-07-20T06:32:35;98529.00;;;17.69;63.51
55347;BME280;41218;55.700;38.270;2023-07-20T06:37:36;98531.13;;;17.65;62.68
55347;BME280;41218;55.700;38.270;2023-07-20T06:42:36;98533.38;;;17.83;62.78
55347;BME280;41218;55.700;38.270;2023-07-20T06:47:38;98542.44;;;17.87;61.83
55347;BME280;41218;55.700;38.270;2023-07-20T06:52:40;98536.72;;;17.91;61.47
55347;BME280;41218;55.700;38.270;2023-07-20T06:57:41;98548.00;;;18.00;61.46
55347;BME280;41218;55.700;38.270;2023-07-20T07:02:41;98554.44;;;18.22;61.52
55347;BME280;41218;55.700;38.270;2023-07-20T07:07:42;98538.34;;;18.14;60.19
55347;BME280;41218;55.700;38.270;2023-07-20T07:12:42;98551.28;;;18.33;60.81
55347;BME280;41218;55.700;38.270;2023-07-20T07:17:42;98535.41;;;18.30;60.17
55347;BME280;41218;55.700;38.270;2023-07-20T07:22:43;98544.50;;;18.56;59.07
55347;BME280;41218;55.700;38.270;2023-07-20T07:27:45;98546.50;;;18.56;59.54
55347;BME280;41218;55.700;38.270;2023-07-20T07:32:45;98561.75;;;18.77;59.56
55347;BME280;41218;55.700;38.270;2023-07-20T07:37:46;98555.19;;;18.71;58.50
55347;BME280;41218;55.700;38.270;2023-07-20T07:42:47;98563.16;;;18.94;58.87
55347;BME280;41218;55.700;38.270;2023-07-20T07:47:47;98549.81;;;18.98;57.92
55347;BME280;41218;55.700;38.270;2023-07-20T07:52:48;98564.31;;;19.28;57.64
55347;BME280;41218;55.700;38.270;2023-07-20T07:57:49;98563.06;;;19.29;56.39
55347;BME280;41218;55.700;38.270;2023-07-20T08:02:50;98548.47;;;19.34;55.91
55347;BME280;41218;55.700;38.270;2023-07-20T08:07:51;98546.78;;;19.37;55.81
55347;BME280;41218;55.700;38.270;2023-07-20T08:12:52;98559.47;;;19.60;55.62
55347;BME280;41218;55.700;38.270;2023-07-20T08:17:53;98569.63;;;19.67;54.66
55347;BME280;41218;55.700;38.270;2023-07-20T08:22:56;98562.88;;;19.77;53.63
55347;BME280;41218;55.700;38.270;2023-07-20T08:27:58;98562.44;;;19.88;53.68
55347;BME280;41218;55.700;38.270;2023-07-20T08:33:01;98539.56;;;19.98;53.06
55347;BME280;41218;55.700;38.270;2023-07-20T08:38:01;98560.50;;;20.16;52.31
55347;BME280;41218;55.700;38.270;2023-07-20T08:43:02;98568.00;;;20.28;51.11
55347;BME280;41218;55.700;38.270;2023-07-20T08:48:05;98576.88;;;20.45;51.05
55347;BME280;41218;55.700;38.270;2023-07-20T08:53:06;98575.16;;;20.48;50.76
55347;BME280;41218;55.700;38.270;2023-07-20T08:58:08;98558.66;;;20.40;50.13
55347;BME280;41218;55.700;38.270;2023-07-20T09:03:10;98556.94;;;20.43;50.06
55347;BME280;41218;55.700;38.270;2023-07-20T09:08:11;98553.53;;;20.48;50.03
55347;BME280;41218;55.700;38.270;2023-07-20T09:13:15;98565.38;;;20.52;48.92
55347;BME280;41218;55.700;38.270;2023-07-20T09:18:31;98575.06;;;20.70;49.69
55347;BME280;41218;55.700;38.270;2023-07-20T09:23:36;98581.47;;;20.79;49.56
55347;BME280;41218;55.700;38.270;2023-07-20T09:28:47;98564.47;;;20.83;48.67
55347;BME280;41218;55.700;38.270;2023-07-20T09:33:49;98574.94;;;20.83;48.61
55347;BME280;41218;55.700;38.270;2023-07-20T09:38:50;98581.16;;;20.77;48.95
55347;BME280;41218;55.700;38.270;2023-07-20T09:43:50;98571.31;;;20.64;49.29
55347;BME280;41218;55.700;38.270;2023-07-20T09:48:52;98587.41;;;20.72;49.47
55347;BME280;41218;55.700;38.270;2023-07-20T09:53:56;98579.13;;;20.87;49.58
55347;BME280;41218;55.700;38.270;2023-07-20T09:58:57;98576.16;;;20.91;49.77
55347;BME280;41218;55.700;38.270;2023-07-20T10:03:58;98576.16;;;20.91;49.36
55347;BME280;41218;55.700;38.270;2023-07-20T10:09:03;98576.28;;;20.96;49.37
55347;BME280;41218;55.700;38.270;2023-07-20T10:14:04;98579.75;;;21.00;49.74
55347;BME280;41218;55.700;38.270;2023-07-20T10:19:17;98577.56;;;20.95;50.05
55347;BME280;41218;55.700;38.270;2023-07-20T10:24:21;98569.59;;;20.94;49.48
55347;BME280;41218;55.700;38.270;2023-07-20T10:29:23;98571.00;;;20.80;49.43
55347;BME280;41218;55.700;38.270;2023-07-20T10:34:24;98603.31;;;20.75;49.72
55347;BME280;41218;55.700;38.270;2023-07-20T10:39:26;98649.25;;;20.50;50.93
55347;BME280;41218;55.700;38.270;2023-07-20T10:44:28;98650.84;;;20.11;52.56
55347;BME280;41218;55.700;38.270;2023-07-20T10:49:28;98643.75;;;19.66;54.02
55347;BME280;41218;55.700;38.270;2023-07-20T11:04:40;98628.44;;;19.26;57.48
55347;BME280;41218;55.700;38.270;2023-07-20T11:09:41;98621.44;;;19.31;56.97
55347;BME280;41218;55.700;38.270;2023-07-20T11:15:03;98613.09;;;19.18;58.72
55347;BME280;41218;55.700;38.270;2023-07-20T11:20:04;98611.09;;;19.18;58.47
55347;BME280;41218;55.700;38.270;2023-07-20T11:25:10;98615.00;;;19.21;59.91
55347;BME280;41218;55.700;38.270;2023-07-20T11:30:19;98616.63;;;19.31;60.69
55347;BME280;41218;55.700;38.270;2023-07-20T11:35:20;98623.06;;;19.41;60.23
55347;BME280;41218;55.700;38.270;2023-07-20T11:40:20;98622.31;;;19.40;60.52
55347;BME280;41218;55.700;38.270;2023-07-20T11:45:22;98617.66;;;19.47;60.62
55347;BME280;41218;55.700;38.270;2023-07-20T11:50:22;98613.03;;;19.53;61.06
55347;BME280;41218;55.700;38.270;2023-07-20T11:55:23;98621.44;;;19.53;60.94
55347;BME280;41218;55.700;38.270;2023-07-20T12:00:24;98630.09;;;19.46;61.29
55347;BME280;41218;55.700;38.270;2023-07-20T12:05:25;98664.38;;;19.50;61.42
55347;BME280;41218;55.700;38.270;2023-07-20T12:10:29;98677.53;;;19.18;61.58
55347;BME280;41218;55.700;38.270;2023-07-20T12:15:30;98675.72;;;19.02;61.89
55347;BME280;41218;55.700;38.270;2023-07-20T12:20:36;98660.19;;;18.88;62.01
55347;BME280;41218;55.700;38.270;2023-07-20T12:25:45;98652.69;;;18.72;62.14
55347;BME280;41218;55.700;38.270;2023-07-20T12:30:46;98649.38;;;18.52;61.94
55347;BME280;41218;55.700;38.270;2023-07-20T12:35:52;98638.41;;;18.45;62.39
55347;BME280;41218;55.700;38.270;2023-07-20T12:40:56;98634.97;;;18.53;62.72
55347;BME280;41218;55.700;38.270;2023-07-20T12:45:57;98631.19;;;18.69;63.19
55347;BME280;41218;55.700;38.270;2023-07-20T12:50:58;98632.31;;;18.85;63.18
55347;BME280;41218;55.700;38.270;2023-07-20T12:55:59;98640.06;;;19.02;63.88
55347;BME280;41218;55.700;38.270;2023-07-20T13:01:00;98641.38;;;19.11;63.58
55347;BME280;41218;55.700;38.270;2023-07-20T13:06:00;98646.22;;;19.10;64.16
55347;BME280;41218;55.700;38.270;2023-07-20T13:11:01;98647.09;;;19.07;64.30
55347;BME280;41218;55.700;38.270;2023-07-20T13:16:02;98645.94;;;19.17;64.42
55347;BME280;41218;55.700;38.270;2023-07-20T13:21:02;98630.75;;;19.28;64.44
55347;BME280;41218;55.700;38.270;2023-07-20T13:26:04;98635.97;;;19.38;64.51
55347;BME280;41218;55.700;38.270;2023-07-20T13:31:06;98639.56;;;19.39;64.49
55347;BME280;41218;55.700;38.270;2023-07-20T13:36:09;98635.34;;;19.34;64.03
55347;BME280;41218;55.700;38.270;2023-07-20T13:41:09;98638.59;;;19.33;63.93
55347;BME280;41218;55.700;38.270;2023-07-20T13:46:10;98633.31;;;19.35;63.96
55347;BME280;41218;55.700;38.270;2023-07-20T13:51:10;98630.06;;;19.36;64.00
55347;BME280;41218;55.700;38.270;2023-07-20T13:56:11;98623.53;;;19.39;63.79
55347;BME280;41218;55.700;38.270;2023-07-20T14:01:11;98626.84;;;19.47;63.75
55347;BME280;41218;55.700;38.270;2023-07-20T14:06:12;98624.06;;;19.56;63.11
55347;BME280;41218;55.700;38.270;2023-07-20T14:11:13;98611.97;;;19.59;62.53
55347;BME280;41218;55.700;38.270;2023-07-20T14:16:14;98613.06;;;19.62;62.07
55347;BME280;41218;55.700;38.270;2023-07-20T14:21:20;98626.63;;;19.64;61.03
55347;BME280;41218;55.700;38.270;2023-07-20T14:26:20;98624.41;;;19.58;61.31
55347;BME280;41218;55.700;38.270;2023-07-20T14:31:21;98634.97;;;19.54;61.33
55347;BME280;41218;55.700;38.270;2023-07-20T14:36:22;98620.00;;;19.48;61.30
55347;BME280;41218;55.700;38.270;2023-07-20T14:41:23;98629.19;;;19.49;61.37
55347;BME280;41218;55.700;38.270;2023-07-20T14:46:23;98628.34;;;19.39;61.64
55347;BME280;41218;55.700;38.270;2023-07-20T14:51:24;98636.44;;;19.37;61.75
55347;BME280;41218;55.700;38.270;2023-07-20T14:56:24;98647.13;;;19.29;61.16
55347;BME280;41218;55.700;38.270;2023-07-20T15:01:25;98636.75;;;19.17;60.88
55347;BME280;41218;55.700;38.270;2023-07-20T15:06:25;98637.22;;;19.15;61.00
55347;BME280;41218;55.700;38.270;2023-07-20T15:11:26;98633.44;;;19.09;61.50
55347;BME280;41218;55.700;38.270;2023-07-20T15:16:27;98638.59;;;19.11;61.95
55347;BME280;41218;55.700;38.270;2023-07-20T15:21:27;98644.19;;;19.11;62.25
55347;BME280;41218;55.700;38.270;2023-07-20T15:26:30;98642.28;;;19.08;62.41
55347;BME280;41218;55.700;38.270;2023-07-20T15:31:31;98639.69;;;19.13;62.48
55347;BME280;41218;55.700;38.270;2023-07-20T15:36:32;98637.97;;;19.16;62.83
55347;BME280;41218;55.700;38.270;2023-07-20T15:41:32;98637.88;;;19.19;62.44
55347;BME280;41218;55.700;38.270;2023-07-20T15:51:39;98648.03;;;19.26;61.42
55347;BME280;41218;55.700;38.270;2023-07-20T15:56:43;98642.88;;;19.25;60.67
55347;BME280;41218;55.700;38.270;2023-07-20T16:01:44;98641.59;;;19.16;60.44
55347;BME280;41218;55.700;38.270;2023-07-20T16:06:45;98645.06;;;19.08;60.36
55347;BME280;41218;55.700;38.270;2023-07-20T16:11:45;98647.75;;;19.11;59.95
55347;BME280;41218;55.700;38.270;2023-07-20T16:16:46;98651.16;;;19.06;59.79
55347;BME280;41218;55.700;38.270;2023-07-20T16:21:46;98656.22;;;18.98;59.61
55347;BME280;41218;55.700;38.270;2023-07-20T16:26:47;98658.94;;;18.89;59.96
55347;BME280;41218;55.700;38.270;2023-07-20T16:31:47;98650.09;;;18.78;59.92
55347;BME280;41218;55.700;38.270;2023-07-20T16:36:48;98664.09;;;18.78;59.16
55347;BME280;41218;55.700;38.270;2023-07-20T16:41:48;98668.50;;;18.66;58.09
55347;BME280;41218;55.700;38.270;2023-07-20T16:46:49;98671.19;;;18.57;57.49
55347;BME280;41218;55.700;38.270;2023-07-20T16:51:50;98686.50;;;18.65;57.99
55347;BME280;41218;55.700;38.270;2023-07-20T16:56:50;98688.44;;;18.42;57.68
55347;BME280;41218;55.700;38.270;2023-07-20T17:01:51;98689.13;;;18.47;58.20
55347;BME280;41218;55.700;38.270;2023-07-20T17:06:54;98691.38;;;18.26;58.54
55347;BME280;41218;55.700;38.270;2023-07-20T17:11:55;98693.28;;;18.29;58.66
55347;BME280;41218;55.700;38.270;2023-07-20T17:16:55;98696.63;;;18.11;59.01
55347;BME280;41218;55.700;38.270;2023-07-20T17:21:56;98710.19;;;18.13;59.11
55347;BME280;41218;55.700;38.270;2023-07-20T17:26:57;98721.91;;;17.95;59.60
55347;BME280;41218;55.700;38.270;2023-07-20T17:31:58;98712.16;;;17.87;59.74
55347;BME280;41218;55.700;38.270;2023-07-20T17:36:59;98734.34;;;17.77;60.32
55347;BME280;41218;55.700;38.270;2023-07-20T17:41:59;98735.09;;;17.65;60.67
55347;BME280;41218;55.700;38.270;2023-07-20T17:46:59;98732.56;;;17.71;60.59
55347;BME280;41218;55.700;38.270;2023-07-20T17:52:00;98734.06;;;17.46;60.82
55347;BME280;41218;55.700;38.270;2023-07-20T17:57:00;98739.97;;;17.48;60.91
55347;BME280;41218;55.700;38.270;2023-07-20T18:02:01;98727.56;;;17.20;61.15
55347;BME280;41218;55.700;38.270;2023-07-20T18:07:03;98737.78;;;17.10;61.75
55347;BME280;41218;55.700;38.270;2023-07-20T18:12:04;98752.09;;;17.12;61.56
55347;BME280;41218;55.700;38.270;2023-07-20T18:17:04;98726.47;;;16.85;62.03
55347;BME280;41218;55.700;38.270;2023-07-20T18:22:05;98718.69;;;16.76;61.99
55347;BME280;41218;55.700;38.270;2023-07-20T18:27:05;98743.22;;;16.85;61.96
55347;BME280;41218;55.700;38.270;2023-07-20T18:32:06;98731.78;;;16.62;62.14
55347;BME280;41218;55.700;38.270;2023-07-20T18:37:07;98739.28;;;16.66;62.13
55347;BME280;41218;55.700;38.270;2023-07-20T18:42:07;98740.94;;;16.47;62.18
55347;BME280;41218;55.700;38.270;2023-07-20T18:47:08;98733.78;;;16.46;62.30
55347;BME280;41218;55.700;38.270;2023-07-20T18:52:09;98739.41;;;16.26;62.60
55347;BME280;41218;55.700;38.270;2023-07-20T18:57:09;98735.06;;;16.25;62.54
55347;BME280;41218;55.700;38.270;2023-07-20T19:02:10;98719.25;;;16.01;62.81
55347;BME280;41218;55.700;38.270;2023-07-20T19:07:11;98729.44;;;15.92;62.94
55347;BME280;41218;55.700;38.270;2023-07-20T19:12:11;98730.44;;;15.81;62.94
55347;BME280;41218;55.700;38.270;2023-07-20T19:17:13;98713.63;;;15.65;63.14
55347;BME280;41218;55.700;38.270;2023-07-20T19:22:14;98722.13;;;15.58;63.22
55347;BME280;41218;55.700;38.270;2023-07-20T19:27:16;98726.63;;;15.52;63.09
55347;BME280;41218;55.700;38.270;2023-07-20T19:32:16;98735.56;;;15.43;63.44
55347;BME280;41218;55.700;38.270;2023-07-20T19:37:17;98734.56;;;15.33;63.36
55347;BME280;41218;55.700;38.270;2023-07-20T19:42:18;98739.81;;;15.28;63.46
55347;BME280;41218;55.700;38.270;2023-07-20T19:47:18;98741.16;;;15.19;63.44
55347;BME280;41218;55.700;38.270;2023-07-20T19:52:19;98741.72;;;15.11;63.44
55347;BME280;41218;55.700;38.270;2023-07-20T19:57:19;98730.78;;;15.00;63.42
55347;BME280;41218;55.700;38.270;2023-07-20T20:02:20;98734.16;;;14.88;63.64
55347;BME280;41218;55.700;38.270;2023-07-20T20:07:20;98743.44;;;14.81;63.65
55347;BME280;41218;55.700;38.270;2023-07-20T20:12:21;98745.53;;;14.73;63.72
55347;BME280;41218;55.700;38.270;2023-07-20T20:17:24;98756.34;;;14.68;63.85
55347;BME280;41218;55.700;38.270;2023-07-20T20:22:25;98763.09;;;14.70;63.76
55347;BME280;41218;55.700;38.270;2023-07-20T20:27:26;98769.25;;;14.54;63.87
55347;BME280;41218;55.700;38.270;2023-07-20T20:32:26;98756.41;;;14.37;63.71
55347;BME280;41218;55.700;38.270;2023-07-20T20:37:27;98758.09;;;14.31;63.92
55347;BME280;41218;55.700;38.270;2023-07-20T20:42:27;98765.69;;;14.27;63.77
55347;BME280;41218;55.700;38.270;2023-07-20T20:47:28;98765.34;;;14.21;64.03
55347;BME280;41218;55.700;38.270;2023-07-20T20:52:29;98764.31;;;14.11;63.82
55347;BME280;41218;55.700;38.270;2023-07-20T20:57:30;98765.19;;;14.05;64.15
55347;BME280;41218;55.700;38.270;2023-07-20T21:02:31;98759.41;;;13.92;64.12
55347;BME280;41218;55.700;38.270;2023-07-20T21:07:32;98775.31;;;13.91;64.05
55347;BME280;41218;55.700;38.270;2023-07-20T21:12:33;98773.00;;;13.82;64.21
55347;BME280;41218;55.700;38.270;2023-07-20T21:17:34;98773.47;;;13.77;64.22
55347;BME280;41218;55.700;38.270;2023-07-20T21:22:35;98782.31;;;13.69;64.26
55347;BME280;41218;55.700;38.270;2023-07-20T21:27:39;98774.91;;;13.58;64.41
55347;BME280;41218;55.700;38.270;2023-07-20T21:32:41;98776.13;;;13.54;64.30
55347;BME280;41218;55.700;38.270;2023-07-20T21:37:42;98783.69;;;13.50;64.42
55347;BME280;41218;55.700;38.270;2023-07-20T21:42:42;98786.97;;;13.41;64.47
55347;BME280;41218;55.700;38.270;2023-07-20T21:47:43;98773.22;;;13.30;64.30
55347;BME280;41218;55.700;38.270;2023-07-20T21:52:43;98790.63;;;13.34;64.50
55347;BME280;41218;55.700;38.270;2023-07-20T21:57:44;98791.50;;;13.24;64.52
55347;BME280;41218;55.700;38.270;2023-07-20T22:02:45;98797.06;;;13.20;64.65
55347;BME280;41218;55.700;38.270;2023-07-20T22:07:45;98791.56;;;13.13;64.65
55347;BME280;41218;55.700;38.270;2023-07-20T22:12:46;98796.75;;;13.08;64.48
55347;BME280;41218;55.700;38.270;2023-07-20T22:17:48;98786.97;;;12.96;64.85
55347;BME280;41218;55.700;38.270;2023-07-20T22:22:48;98796.09;;;12.96;64.72
55347;BME280;41218;55.700;38.270;2023-07-20T22:27:49;98794.56;;;12.92;64.98
55347;BME280;41218;55.700;38.270;2023-07-20T22:32:49;98792.59;;;12.85;64.83
55347;BME280;41218;55.700;38.270;2023-07-20T22:37:52;98780.00;;;12.77;65.08
55347;BME280;41218;55.700;38.270;2023-07-20T22:42:52;98796.59;;;12.80;64.94
55347;BME280;41218;55.700;38.270;2023-07-20T22:47:53;98793.44;;;12.78;65.23
55347;BME280;41218;55.700;38.270;2023-07-20T22:52:53;98788.75;;;12.72;64.75
55347;BME280;41218;55.700;38.270;2023-07-20T22:57:54;98796.31;;;12.68;65.25
55347;BME280;41218;55.700;38.270;2023-07-20T23:02:55;98785.28;;;12.57;65.18
55347;BME280;41218;55.700;38.270;2023-07-20T23:07:55;98792.81;;;12.56;65.18
55347;BME280;41218;55.700;38.270;2023-07-20T23:12:56;98794.03;;;12.55;65.05
55347;BME280;41218;55.700;38.270;2023-07-20T23:17:57;98789.31;;;12.49;65.13
55347;BME280;41218;55.700;38.270;2023-07-20T23:22:58;98788.16;;;12.42;65.34
55347;BME280;41218;55.700;38.270;2023-07-20T23:27:58;98792.91;;;12.42;65.21
55347;BME280;41218;55.700;38.270;2023-07-20T23:32:59;98792.94;;;12.38;65.43
55347;BME280;41218;55.700;38.270;2023-07-20T23:38:00;98784.25;;;12.36;65.24
55347;BME280;41218;55.700;38.270;2023-07-20T23:43:01;98775.22;;;12.21;65.41
55347;BME280;41218;55.700;38.270;2023-07-20T23:48:02;98784.25;;;12.36;65.55
55347;BME280;41218;55.700;38.270;2023-07-20T23:53:03;98769.69;;;12.18;65.37
55347;BME280;41218;55.700;38.270;2023-07-20T23:58:03;98776.44;;;12.17;65.36
